Homeport Seattle

Current conditions, outlook, and status of Seattle.

 



Today is Setting Orange, the 25th day of Chaos in the YOLD 3188

Content-type:text/html SDOT BRIDGE MINDER

Seattle Bridges

09:40:42 AM

Ballard OPEN   9:06:33 AM

Fremont OPEN   8:30:48 AM

University OPEN   10:52:37 PM

Montlake OPEN   10:44:43 PM

Lower Spokane OPEN   8:38:38 AM

1st Ave S OPEN   9:09:08 AM

South Park CLOSED   9:37:47 AM

Note: Bridge data is only as reliable as the
@sdotbridges Twitter feed.




Seattle Tides

Click images to embiggen or to change display options




Content-type:text/html

national weather service

2022/01/25 17:36 KSEA 251736Z 00000KT 2SM BR BKN005 02/01 A3034 RMK AO2 T00220006
2022/01/25 16:53 KBFI 251653Z 06004KT 4SM BR OVC008 03/01 A3035 RMK AO2 SLP277 T00280011


  KSEA KBFI
  SeaTac Airport Boeing Field
day: 25 25
time: 1736 1653
type: Automated Automated
cond: Mist Mist
     
Winds    
     
mph: 0 4
mph gusting: 0 0
kts: 0 4
kts gusting: 0 0
direction: 0 60
direction: Calm Northeast
     
Temperature and Humidity    
     
temp F: 35 37
dew point F: 33 33
temp C: 02 03
dew point C: 01 01
rel. humidity: 93 86
     
windchill F: 57 33
windchill C: 13 0
heat index F: 135 133
heat index C: 57 56
     
Clouds and Visibility    
     
cloud cover: Mostly Cloudy Cloudy
visibility mi: 2 4
visibility km: 3 6
     
Air pressure    
     
in HG: 30.34 30.35
mm HG: 770 770
kg/cm: 1.047688744 1.04803406
psi: 14.90161236 14.9065239
millibar: 1027 1027
     
Experimental and Esoteric    
     
prec tmp: T00220006 T00280011
storm:
sea inHG: 30.34
sea mmHG: 770
sea kgcm: 1.047966244
sea psi: 14.90555526
sea mbar: 1027
     



NOAA Weather Radio Seattle -- KHB60
[ continuous ]

KHB60 coverage map

[ view larger map ]

 


2022.01.25

17 : 40 UTC


Local Metric Time

7.36


Unix epoch

1643132442

stardate

 

External Links

weather

[ NOAA weather radio ]

Fire Department 911 Incidents

another date (mm/dd/yyyy)

Puget Sound Waters

salish sea hydrophone network

[ Home || seattle aquarium | pt. townsend | san juan isl | lime kiln s.p ]

Traffic

KC DOT Cameras

 


- * - poop - * -